Terminal Aerodrome Forecast
Issued by NWS

Home | Current Version | Previous Version | Text Only | Print | Product List | Glossary On
Versions: 1 2 3 4 5 6 7 8 9 10 11 12 13 14 15 16 17 18 19 20
976
FTUS43 KDLH 251741
TAFHIB
TAF
KHIB 251741Z 2518/2618 15012KT P6SM BKN025 BKN050
     FM252100 18007KT P6SM OVC018
     FM260000 19006KT P6SM VCSH OVC025
     FM260400 VRB03KT P6SM SCT050 SCT100
     FM260700 29003KT 4SM BR SCT120
     FM261100 33004KT P6SM SCT110=

USA.gov is the U.S. government's official web portal to all federal, state and local government web resources and services.